NHK Airport (Patuxent River Nas/Trapnell Field/) Information

FAA: NHK - ICAO: KNHK

NHK Airport Location

State Maryland
County St Marys
City Patuxent River
NHK Airport is 0 miles north of Patuxent River, MD.
Latitude 38-17-10.7937N
Longitude 076-24-35.8488W
Elevation 38ft

KNHK Airport METARs

METAR KNHK 080652Z AUTO 00000KT 10SM FEW075 FEW120 01/M03 A3013 RMK AO2 SLP202 T00061033 VISNO RY24 $
Altimeter 30.13"
Temperature 0.6°C (33.1°F)
Wind 0° at 0KT
Clouds few at 7,500ft few at 12,000ft
Visibility 10.0mi
Time observed: 2021-12-08T06:52:00Z

NHK Airport Details

Status Operational
Activation February 1944
Ownership Military - Navy
Usage Private
Chart WASHINGTON
ATC on-site Yes
Beacon schedule sunset-sunrise
Beacon color split clear green

NHK Airport Contacts

Owner US NAVY
Owner address OCEANOGRAPHIC OFC-CODE 3142, WASHINGTON, DC 20373
Owner phone N/A
Manager SAMUEL C. LINTON, JR.
Manager address 11420 HOLLY SPRINGS RD, NANJEMOY, MD 20662
Manager phone 301-246-4285

NHK Airport (Patuxent River Nas/Trapnell Field/) Radio Frequencies

NHK (Airport) Radio Frequencies

UNICOM N/A
Common traffic advisory frequency (CTAF) N/A